Latest Weather Observations for Spring Bay

IDT60801

Issued at 3:41 pm EST Wednesday 20 June 2018 (issued every 10 minutes, with the page automatically refreshed every 10 minutes)

About weather observations | Map of weather stations | Latest weather observations for TAS | Other Formats
Station Details ID: 092133 Name: SPRING BAY NTC AWS Lat: -42.55 Lon: 147.93 Height: 0.0 m
Data from the previous 72 hours. | See also: Recent months for locations in Tasmania
Date/Time
EST
Temp
°C
App
Temp
°C
Dew
Point
°C
Rel
Hum
%
Delta-T
°C
Wind Press
QNH
hPa
Press
MSL
hPa
Rain since
9am
mm
Dir  Spd
km/h
Gust
km/h
Spd
kts
Gust
kts
20/03:30pm 13.5 - - - - - - - - - 1024.7 1024.7 -
20/03:00pm 13.7 - - - - - - - - - 1024.9 1024.9 -
20/02:30pm 13.4 - - - - - - - - - 1024.9 1024.9 -
20/02:00pm 13.3 - - - - - - - - - 1025.1 1025.1 -
20/01:30pm 13.3 - - - - - - - - - 1025.4 1025.4 -
20/01:00pm 13.3 - - - - - - - - - 1025.8 1025.8 -
20/12:30pm 13.1 - - - - - - - - - 1026.2 1026.2 -
20/12:00pm 13.1 - - - - - - - - - 1026.7 1026.7 -
20/11:30am 12.5 - - - - - - - - - 1027.3 1027.3 -
20/11:00am 12.1 - - - - - - - - - 1027.8 1027.8 -
20/10:30am 11.8 - - - - - - - - - 1028.2 1028.2 -
20/10:00am 9.9 - - - - - - - - - 1028.4 1028.4 -
20/09:30am 9.0 - - - - - - - - - 1028.4 1028.4 -
20/09:00am 6.4 - - - - - - - - - 1028.5 1028.5 -
20/08:30am 5.3 - - - - - - - - - 1028.6 1028.6 -
20/08:00am 5.1 - - - - - - - - - 1028.5 1028.5 -
20/07:30am 5.0 - - - - - - - - - 1028.4 1028.4 -
20/07:00am 6.0 - - - - - - - - - 1028.4 1028.4 -
20/06:30am 5.1 - - - - - - - - - 1028.5 1028.5 -
20/06:00am 5.3 - - - - - - - - - 1028.3 1028.3 -
20/05:30am 5.4 - - - - - - - - - 1028.2 1028.2 -
20/05:00am 6.0 - - - - - - - - - 1028.2 1028.2 -
20/04:30am 6.2 - - - - - - - - - 1028.2 1028.2 -
20/04:00am 6.5 - - - - - - - - - 1028.0 1028.0 -
20/03:30am 7.2 - - - - - - - - - 1027.9 1027.9 -
20/03:00am 7.0 - - - - - - - - - 1028.2 1028.2 -
20/02:30am 6.9 - - - - - - - - - 1028.1 1028.1 -
20/02:00am 6.9 - - - - - - - - - 1028.1 1028.1 -
20/01:30am 7.0 - - - - - - - - - 1028.4 1028.4 -
20/01:00am 6.8 - - - - - - - - - 1028.9 1028.9 -
20/12:30am 6.6 - - - - - - - - - 1029.3 1029.3 -
20/12:00am 6.3 - - - - - - - - - 1029.9 1029.9 -
 
Date/Time
EST
Temp
°C
App
Temp
°C
Dew
Point
°C
Rel
Hum
%
Delta-T
°C
Wind Press
QNH
hPa
Press
MSL
hPa
Rain since
9am
mm
Dir  Spd
km/h
Gust
km/h
Spd
kts
Gust
kts
19/11:30pm 6.4 - - - - - - - - - 1030.0 1030.0 -
19/11:00pm 6.3 - - - - - - - - - 1030.1 1030.1 -
19/10:30pm 6.3 - - - - - - - - - 1030.1 1030.1 -
19/10:00pm 6.5 - - - - - - - - - 1030.0 1030.0 -
19/09:30pm 6.8 - - - - - - - - - 1030.3 1030.3 -
19/09:00pm 7.2 - - - - - - - - - 1030.6 1030.6 -
19/08:30pm 7.5 - - - - - - - - - 1030.7 1030.7 -
19/08:00pm 7.9 - - - - - - - - - 1030.9 1030.9 -
19/07:30pm 8.4 - - - - - - - - - 1030.8 1030.8 -
19/07:00pm 8.8 - - - - - - - - - 1030.4 1030.4 -
19/06:30pm 8.6 - - - - - - - - - 1030.4 1030.4 -
19/06:00pm 8.9 - - - - - - - - - 1029.9 1029.9 -
19/05:30pm 9.7 - - - - - - - - - 1030.0 1030.0 -
19/05:00pm 9.8 - - - - - - - - - 1029.7 1029.7 -
19/04:30pm 10.3 - - - - - - - - - 1029.9 1029.9 -
19/04:00pm 10.6 - - - - - - - - - 1030.0 1030.0 -
19/03:30pm 10.5 - - - - - - - - - 1029.6 1029.6 -
19/03:00pm 10.6 - - - - - - - - - 1029.5 1029.5 -
19/02:30pm 11.0 - - - - - - - - - 1029.3 1029.3 -
19/02:00pm 10.5 - - - - - - - - - 1029.0 1029.0 -
19/01:30pm 10.6 - - - - - - - - - 1029.2 1029.2 -
19/01:00pm 10.3 - - - - - - - - - 1029.7 1029.7 -
19/12:30pm 9.9 - - - - - - - - - 1029.9 1029.9 -
19/12:00pm 10.4 - - - - - - - - - 1030.4 1030.4 -
19/11:30am 11.1 - - - - - - - - - 1030.8 1030.8 -
19/11:00am 10.2 - - - - - - - - - 1031.0 1031.0 -
19/10:30am 10.5 - - - - - - - - - 1031.1 1031.1 -
19/10:00am 8.9 - - - - - - - - - 1031.1 1031.1 -
19/09:30am 8.1 - - - - - - - - - 1031.2 1031.2 -
19/09:00am 7.6 - - - - - - - - - 1031.1 1031.1 -
19/08:30am 7.3 - - - - - - - - - 1031.1 1031.1 -
19/08:00am 7.5 - - - - - - - - - 1030.9 1030.9 -
19/07:30am 8.0 - - - - - - - - - 1030.5 1030.5 -
19/07:00am 8.2 - - - - - - - - - 1030.3 1030.3 -
19/06:30am 8.8 - - - - - - - - - 1030.2 1030.2 -
19/06:00am 9.2 - - - - - - - - - 1030.0 1030.0 -
19/05:30am 9.2 - - - - - - - - - 1029.9 1029.9 -
19/05:00am 9.2 - - - - - - - - - 1029.7 1029.7 -
19/04:30am 9.4 - - - - - - - - - 1029.5 1029.5 -
19/04:00am 9.4 - - - - - - - - - 1029.5 1029.5 -
19/03:30am 9.7 - - - - - - - - - 1029.5 1029.5 -
19/03:00am 9.4 - - - - - - - - - 1029.6 1029.6 -
19/02:30am 9.8 - - - - - - - - - 1029.6 1029.6 -
19/02:00am 9.8 - - - - - - - - - 1029.6 1029.6 -
19/01:30am 9.8 - - - - - - - - - 1029.5 1029.5 -
19/01:00am 9.8 - - - - - - - - - 1029.5 1029.5 -
19/12:30am 9.6 - - - - - - - - - 1029.6 1029.6 -
19/12:00am 9.6 - - - - - - - - - 1029.5 1029.5 -
 
Date/Time
EST
Temp
°C
App
Temp
°C
Dew
Point
°C
Rel
Hum
%
Delta-T
°C
Wind Press
QNH
hPa
Press
MSL
hPa
Rain since
9am
mm
Dir  Spd
km/h
Gust
km/h
Spd
kts
Gust
kts
18/11:30pm 9.8 - - - - - - - - - 1029.5 1029.5 -
18/11:00pm 9.7 - - - - - - - - - 1029.3 1029.3 -
18/10:30pm 9.7 - - - - - - - - - 1029.2 1029.2 -
18/10:00pm 9.4 - - - - - - - - - 1029.1 1029.1 -
18/09:30pm 9.6 - - - - - - - - - 1028.9 1028.9 -
18/09:00pm 10.7 - - - - - - - - - 1028.9 1028.9 -
18/08:30pm 10.6 - - - - - - - - - 1028.7 1028.7 -
18/08:00pm 10.4 - - - - - - - - - 1028.8 1028.8 -
18/07:30pm 10.3 - - - - - - - - - 1028.5 1028.5 -
18/07:00pm 10.1 - - - - - - - - - 1028.2 1028.2 -
18/06:30pm 9.8 - - - - - - - - - 1027.9 1027.9 -
18/06:00pm 10.1 - - - - - - - - - 1027.6 1027.6 -
18/05:30pm 10.3 - - - - - - - - - 1027.5 1027.5 -
18/05:00pm 10.5 - - - - - - - - - 1027.3 1027.3 -
18/04:30pm 10.4 - - - - - - - - - 1027.0 1027.0 -
18/04:00pm 10.3 - - - - - - - - - 1026.8 1026.8 -
18/03:30pm 10.3 - - - - - - - - - 1026.6 1026.6 -
18/03:00pm 10.0 - - - - - - - - - 1026.5 1026.5 -
18/02:30pm 10.0 - - - - - - - - - 1026.2 1026.2 -
18/02:00pm 10.7 - - - - - - - - - 1025.8 1025.8 -
18/01:30pm 11.2 - - - - - - - - - 1025.5 1025.5 -
18/01:00pm 11.2 - - - - - - - - - 1025.4 1025.4 -
18/12:30pm 11.6 - - - - - - - - - 1025.6 1025.6 -
18/12:00pm 11.0 - - - - - - - - - 1025.7 1025.7 -
18/11:30am 10.9 - - - - - - - - - 1025.7 1025.7 -
18/11:00am 10.9 - - - - - - - - - 1025.8 1025.8 -
18/10:30am 10.8 - - - - - - - - - 1025.8 1025.8 -
18/10:00am 9.6 - - - - - - - - - 1025.8 1025.8 -
18/09:30am 10.0 - - - - - - - - - 1025.7 1025.7 -
18/09:00am 9.7 - - - - - - - - - 1025.3 1025.3 -
18/08:30am 9.2 - - - - - - - - - 1025.2 1025.2 -
18/08:00am 9.1 - - - - - - - - - 1024.7 1024.7 -
18/07:30am 9.5 - - - - - - - - - 1024.3 1024.3 -
18/07:00am 9.8 - - - - - - - - - 1024.0 1024.0 -
18/06:30am 9.7 - - - - - - - - - 1023.6 1023.6 -
18/06:00am 9.2 - - - - - - - - - 1023.5 1023.5 -
18/05:30am 8.5 - - - - - - - - - 1023.3 1023.3 -
18/05:00am 9.1 - - - - - - - - - 1023.2 1023.2 -
18/04:30am 8.9 - - - - - - - - - 1022.9 1022.9 -
18/04:00am 9.0 - - - - - - - - - 1022.8 1022.8 -
18/03:30am 9.3 - - - - - - - - - 1022.6 1022.6 -
18/03:00am 8.6 - - - - - - - - - 1022.5 1022.5 -
18/02:30am 8.8 - - - - - - - - - 1022.4 1022.4 -
18/02:00am 8.9 - - - - - - - - - 1021.9 1021.9 -

Other Formats:

Comma delimited format used in spreadsheet applications
http://www.bom.gov.au/fwo/IDT60801/IDT60801.95987.axf

JavaScript Object Notation format (JSON) in row-major order
http://www.bom.gov.au/fwo/IDT60801/IDT60801.95987.json